| time (UTC) | temp F | wind direction | speed knots | gust knots | rain 1hr in | rain 24hr in | rain mn in | humidity % | barometer mb |
| 20260507234004 | 46 | 3 | 0.0 | 0.0 | 0.00 | 0.00 | 0.00 | 88 | 1015.7 |
| 20260507233003 | 46 | 3 | 0.0 | 0.0 | 0.00 | 0.00 | 0.00 | 88 | 1015.8 |
| 20260507232004 | 46 | 3 | 0.0 | 0.0 | 0.00 | 0.00 | 0.00 | 88 | 1015.9 |
| 20260507224003 | 46 | 102 | 0.9 | 0.9 | 0.00 | 0.00 | 0.00 | 88 | 1015.9 |
| 20260507223004 | 47 | 97 | 0.0 | 0.9 | 0.00 | 0.00 | 0.00 | 87 | 1016.0 |
| 20260507222004 | 47 | 97 | 0.0 | 0.0 | 0.00 | 0.00 | 0.00 | 87 | 1015.9 |
| 20260507221003 | 47 | 97 | 0.0 | 0.9 | 0.00 | 0.00 | 0.00 | 87 | 1016.0 |
| 20260507215004 | 48 | 97 | 0.9 | 1.7 | 0.00 | 0.00 | 0.00 | 88 | 1016.1 |
| 20260507214005 | 47 | 148 | 0.0 | 0.0 | 0.00 | 0.00 | 0.00 | 88 | 1016.1 |
| 20260507213003 | 47 | 148 | 0.0 | 0.0 | 0.00 | 0.00 | 0.00 | 87 | 1016.0 |
| 20260507212004 | 47 | 148 | 0.0 | 0.0 | 0.00 | 0.00 | 0.00 | 86 | 1016.0 |
| 20260507211003 | 47 | 148 | 0.0 | 0.0 | 0.00 | 0.00 | 0.00 | 85 | 1016.0 |
| 20260507210004 | 48 | 148 | 0.0 | 0.0 | 0.00 | 0.00 | 0.00 | 84 | 1016.2 |
| 20260507204003 | 49 | 148 | 0.0 | 0.0 | 0.00 | 0.00 | 0.00 | 83 | 1016.2 |
| 20260507203003 | 57 | 3 | 0.0 | 0.0 | 0.00 | 0.00 | 0.00 | 70 | 1016.0 |
| 20260507202004 | 57 | 3 | 0.0 | 0.0 | 0.00 | 0.00 | 0.00 | 70 | 1016.0 |
| 20260507201003 | 57 | 3 | 0.0 | 0.0 | 0.00 | 0.00 | 0.00 | 70 | 1015.9 |
| 20260507200003 | 57 | 3 | 0.0 | 0.0 | 0.00 | 0.00 | 0.00 | 70 | 1015.7 |
| 20260507195004 | 57 | 3 | 0.0 | 0.0 | 0.00 | 0.00 | 0.00 | 70 | 1015.5 |
| 20260507193004 | 57 | 3 | 0.0 | 0.0 | 0.00 | 0.00 | 0.00 | 70 | 1015.2 |
| 20260507192003 | 57 | 3 | 0.0 | 0.0 | 0.00 | 0.00 | 0.00 | 70 | 1015.1 |
| 20260507190005 | 57 | 3 | 0.0 | 0.0 | 0.00 | 0.00 | 0.00 | 70 | 1014.9 |
| 20260507185004 | 57 | 3 | 0.0 | 0.0 | 0.00 | 0.00 | 0.00 | 70 | 1014.9 |
| 20260507184003 | 57 | 6 | 0.9 | 0.9 | 0.00 | 0.00 | 0.00 | 70 | 1015.1 |
| 20260507183004 | 57 | 198 | 0.9 | 2.6 | 0.00 | 0.00 | 0.00 | 70 | 1014.9 |
| 20260507182003 | 57 | 198 | 0.9 | 2.6 | 0.00 | 0.00 | 0.00 | 69 | 1014.9 |
| 20260507181004 | 58 | 120 | 0.9 | 1.7 | 0.00 | 0.00 | 0.00 | 68 | 1014.9 |
| 20260507180004 | 58 | 52 | 0.9 | 2.6 | 0.00 | 0.00 | 0.00 | 67 | 1014.8 |
| 20260507175003 | 58 | 120 | 0.9 | 2.6 | 0.00 | 0.00 | 0.00 | 68 | 1014.9 |
| 20260507174004 | 58 | 189 | 1.7 | 4.3 | 0.00 | 0.00 | 0.00 | 69 | 1014.9 |
| 20260507173004 | 58 | 178 | 1.7 | 4.3 | 0.00 | 0.00 | 0.00 | 67 | 1014.9 |
| 20260507172003 | 57 | 123 | 2.6 | 5.2 | 0.00 | 0.00 | 0.00 | 68 | 1014.9 |
| 20260507171004 | 58 | 154 | 1.7 | 4.3 | 0.00 | 0.00 | 0.00 | 71 | 1015.0 |
| 20260507170004 | 58 | 165 | 1.7 | 5.2 | 0.00 | 0.00 | 0.00 | 69 | 1015.0 |
| 20260507164003 | 59 | 164 | 2.6 | 6.1 | 0.00 | 0.00 | 0.00 | 68 | 1015.0 |
| 20260507163003 | 59 | 189 | 1.7 | 5.2 | 0.00 | 0.00 | 0.00 | 68 | 1015.0 |
| 20260507162003 | 59 | 184 | 1.7 | 5.2 | 0.00 | 0.00 | 0.00 | 66 | 1015.0 |
| 20260507161004 | 59 | 206 | 1.7 | 5.2 | 0.00 | 0.00 | 0.00 | 68 | 1015.1 |
| 20260507160004 | 59 | 178 | 1.7 | 6.1 | 0.00 | 0.00 | 0.00 | 68 | 1015.2 |
| 20260507155004 | 59 | 246 | 1.7 | 6.1 | 0.00 | 0.00 | 0.00 | 68 | 1015.2 |
| 20260507153004 | 59 | 194 | 2.6 | 8.7 | 0.00 | 0.00 | 0.00 | 69 | 1015.3 |
| 20260507152003 | 59 | 178 | 2.6 | 8.7 | 0.00 | 0.00 | 0.00 | 69 | 1015.3 |
| 20260507151004 | 60 | 178 | 2.6 | 5.2 | 0.00 | 0.00 | 0.00 | 70 | 1015.3 |
| 20260507150004 | 59 | 230 | 2.6 | 7.0 | 0.00 | 0.00 | 0.00 | 69 | 1015.4 |
| 20260507145003 | 59 | 167 | 2.6 | 8.7 | 0.00 | 0.00 | 0.00 | 70 | 1015.4 |
| 20260507144004 | 59 | 203 | 2.6 | 8.7 | 0.00 | 0.00 | 0.00 | 68 | 1015.4 |
| 20260507143004 | 59 | 204 | 1.7 | 7.0 | 0.00 | 0.00 | 0.00 | 70 | 1015.5 |
| 20260507142004 | 59 | 199 | 2.6 | 7.0 | 0.00 | 0.00 | 0.00 | 68 | 1015.6 |
| 20260507141004 | 59 | 200 | 2.6 | 7.0 | 0.00 | 0.00 | 0.00 | 70 | 1015.6 |
| 20260507140004 | 59 | 202 | 2.6 | 5.2 | 0.00 | 0.00 | 0.00 | 70 | 1015.7 |
| 20260507135003 | 58 | 189 | 1.7 | 5.2 | 0.00 | 0.00 | 0.00 | 73 | 1015.7 |
| 20260507134003 | 57 | 173 | 1.7 | 6.1 | 0.00 | 0.00 | 0.00 | 74 | 1015.7 |
| 20260507133004 | 57 | 192 | 1.7 | 7.0 | 0.00 | 0.00 | 0.00 | 75 | 1015.7 |
| 20260507131004 | 56 | 191 | 1.7 | 5.2 | 0.00 | 0.00 | 0.00 | 77 | 1015.8 |
| 20260507130004 | 55 | 179 | 2.6 | 7.0 | 0.00 | 0.00 | 0.00 | 77 | 1015.9 |
| 20260507125004 | 55 | 160 | 2.6 | 6.1 | 0.00 | 0.00 | 0.00 | 76 | 1015.9 |
| 20260507124003 | 55 | 164 | 1.7 | 6.1 | 0.00 | 0.00 | 0.00 | 77 | 1015.9 |
| 20260507123004 | 55 | 169 | 1.7 | 4.3 | 0.00 | 0.00 | 0.00 | 77 | 1015.9 |
| 20260507122004 | 55 | 180 | 1.7 | 6.1 | 0.00 | 0.00 | 0.00 | 76 | 1015.9 |
| 20260507121004 | 55 | 205 | 1.7 | 4.3 | 0.00 | 0.00 | 0.00 | 76 | 1015.9 |
| 20260507120004 | 55 | 170 | 1.7 | 6.1 | 0.00 | 0.00 | 0.00 | 76 | 1015.9 |
| 20260507115003 | 56 | 222 | 2.6 | 5.2 | 0.00 | 0.00 | 0.00 | 75 | 1015.9 |
| 20260507112004 | 58 | 202 | 1.7 | 7.0 | 0.00 | 0.00 | 0.00 | 71 | 1015.7 |
| 20260507110004 | 60 | 74 | 2.6 | 8.7 | 0.00 | 0.00 | 0.00 | 66 | 1015.7 |
| 20260507105004 | 60 | 89 | 1.7 | 7.8 | 0.00 | 0.00 | 0.00 | 68 | 1015.7 |
| 20260507104004 | 58 | 175 | 3.5 | 7.8 | 0.00 | 0.00 | 0.00 | 66 | 1015.8 |
| 20260507103003 | 59 | 205 | 1.7 | 5.2 | 0.00 | 0.00 | 0.00 | 66 | 1015.8 |
| 20260507102003 | 60 | 216 | 2.6 | 7.8 | 0.00 | 0.00 | 0.00 | 64 | 1015.9 |
| 20260507100005 | 60 | 74 | 1.7 | 4.3 | 0.00 | 0.00 | 0.00 | 65 | 1015.9 |
| 20260507094003 | 60 | 86 | 2.6 | 5.2 | 0.00 | 0.00 | 0.00 | 67 | 1015.9 |
| 20260507093004 | 60 | 137 | 2.6 | 5.2 | 0.00 | 0.00 | 0.00 | 67 | 1015.9 |
| 20260507092004 | 59 | 221 | 1.7 | 5.2 | 0.00 | 0.00 | 0.00 | 68 | 1015.9 |
| 20260507091003 | 59 | 114 | 1.7 | 2.6 | 0.00 | 0.00 | 0.00 | 67 | 1015.8 |
| 20260507090004 | 59 | 70 | 0.9 | 2.6 | 0.00 | 0.00 | 0.00 | 70 | 1015.9 |
| 20260507085003 | 58 | 348 | 0.9 | 4.3 | 0.00 | 0.00 | 0.00 | 68 | 1015.9 |
| 20260507083004 | 57 | 192 | 0.9 | 4.3 | 0.00 | 0.00 | 0.00 | 72 | 1016.0 |
| 20260507082004 | 57 | 206 | 0.0 | 4.3 | 0.00 | 0.00 | 0.00 | 74 | 1016.0 |
| 20260507081004 | 56 | 85 | 0.9 | 4.3 | 0.00 | 0.00 | 0.00 | 74 | 1015.9 |
| 20260507080003 | 56 | 200 | 0.9 | 4.3 | 0.00 | 0.00 | 0.00 | 76 | 1015.9 |
| 20260507075003 | 55 | 34 | 1.7 | 4.3 | 0.00 | 0.00 | 0.00 | 76 | 1015.8 |
| 20260507074004 | 55 | 101 | 0.0 | 4.3 | 0.00 | 0.00 | 0.00 | 78 | 1015.9 |
| 20260507073004 | 55 | 138 | 0.9 | 2.6 | 0.00 | 0.00 | 0.00 | 79 | 1015.8 |
| 20260507072003 | 55 | 57 | 0.0 | 1.7 | 0.00 | 0.00 | 0.00 | 82 | 1015.8 |
| 20260507070006 | 51 | 325 | 0.0 | 0.0 | 0.00 | 0.00 | 0.00 | 91 | 1015.7 |
| 20260507065004 | 49 | 325 | 0.0 | 0.0 | 0.00 | 0.00 | 0.00 | 92 | 1015.6 |
| 20260507064003 | 47 | 325 | 0.0 | 1.7 | 0.00 | 0.00 | 0.00 | 91 | 1015.7 |
| 20260507062004 | 45 | 325 | 0.0 | 0.0 | 0.00 | 0.00 | 0.00 | 92 | 1015.6 |
| 20260507061003 | 44 | 325 | 0.0 | 0.0 | 0.00 | 0.00 | 0.00 | 92 | 1015.5 |
| 20260507060004 | 43 | 325 | 0.0 | 0.0 | 0.00 | 0.00 | 0.00 | 92 | 1015.5 |
| 20260507055003 | 42 | 325 | 0.0 | 1.7 | 0.00 | 0.00 | 0.00 | 91 | 1015.4 |
| 20260507054004 | 42 | 253 | 0.0 | 1.7 | 0.00 | 0.00 | 0.00 | 91 | 1015.4 |
| 20260507053005 | 41 | 36 | 0.9 | 2.6 | 0.00 | 0.00 | 0.00 | 91 | 1015.3 |
| 20260507052004 | 41 | 298 | 0.9 | 1.7 | 0.00 | 0.00 | 0.00 | 91 | 1015.2 |
| 20260507051003 | 41 | 329 | 0.9 | 1.7 | 0.00 | 0.00 | 0.00 | 91 | 1015.2 |
| 20260507050004 | 41 | 301 | 0.0 | 2.6 | 0.00 | 0.00 | 0.00 | 90 | 1015.1 |
| 20260507045004 | 41 | 311 | 1.7 | 2.6 | 0.00 | 0.00 | 0.00 | 90 | 1015.1 |
| 20260507044003 | 41 | 311 | 1.7 | 2.6 | 0.00 | 0.00 | 0.00 | 90 | 1015.1 |
| 20260507043004 | 41 | 306 | 1.7 | 2.6 | 0.00 | 0.00 | 0.00 | 90 | 1015.1 |
| 20260507042004 | 41 | 320 | 1.7 | 4.3 | 0.00 | 0.00 | 0.00 | 90 | 1015.0 |
| 20260507041003 | 41 | 307 | 1.7 | 2.6 | 0.00 | 0.00 | 0.00 | 90 | 1015.1 |
| 20260507035003 | 41 | 320 | 1.7 | 2.6 | 0.00 | 0.00 | 0.00 | 90 | 1015.1 |
| 20260507034004 | 41 | 321 | 1.7 | 2.6 | 0.00 | 0.00 | 0.00 | 90 | 1015.0 |
| 20260507033004 | 41 | 306 | 1.7 | 2.6 | 0.00 | 0.00 | 0.00 | 90 | 1015.0 |
| 20260507032003 | 42 | 303 | 1.7 | 2.6 | 0.00 | 0.00 | 0.00 | 90 | 1014.9 |
| 20260507031004 | 42 | 300 | 1.7 | 2.6 | 0.00 | 0.00 | 0.00 | 89 | 1014.9 |
| 20260507030004 | 42 | 317 | 1.7 | 2.6 | 0.00 | 0.00 | 0.00 | 89 | 1014.9 |
| 20260507025003 | 42 | 318 | 1.7 | 2.6 | 0.00 | 0.00 | 0.00 | 89 | 1014.9 |
| 20260507024004 | 42 | 308 | 0.9 | 1.7 | 0.00 | 0.00 | 0.00 | 89 | 1014.8 |
| 20260507023004 | 42 | 309 | 1.7 | 2.6 | 0.00 | 0.00 | 0.00 | 89 | 1014.8 |
| 20260507022003 | 42 | 311 | 1.7 | 2.6 | 0.00 | 0.00 | 0.00 | 89 | 1014.8 |
| 20260507021004 | 42 | 304 | 0.9 | 2.6 | 0.00 | 0.00 | 0.00 | 88 | 1014.7 |
| 20260507020004 | 42 | 302 | 1.7 | 2.6 | 0.00 | 0.00 | 0.00 | 88 | 1014.7 |
| 20260507015003 | 42 | 307 | 1.7 | 2.6 | 0.00 | 0.00 | 0.00 | 88 | 1014.6 |
| 20260507013003 | 42 | 288 | 1.7 | 2.6 | 0.00 | 0.00 | 0.00 | 88 | 1014.6 |
| 20260507012004 | 42 | 295 | 1.7 | 2.6 | 0.00 | 0.00 | 0.00 | 88 | 1014.7 |
| 20260507011004 | 43 | 311 | 1.7 | 2.6 | 0.00 | 0.00 | 0.00 | 87 | 1014.7 |
| 20260507010004 | 43 | 303 | 0.9 | 2.6 | 0.00 | 0.00 | 0.00 | 87 | 1014.8 |
| 20260507005004 | 43 | 298 | 0.9 | 2.6 | 0.00 | 0.00 | 0.00 | 87 | 1014.7 |
| 20260507004003 | 44 | 309 | 0.9 | 2.6 | 0.00 | 0.00 | 0.00 | 86 | 1014.7 |
| 20260507003004 | 44 | 309 | 0.9 | 2.6 | 0.00 | 0.00 | 0.00 | 86 | 1014.7 |
| 20260507002003 | 44 | 300 | 0.9 | 2.6 | 0.00 | 0.00 | 0.00 | 85 | 1014.8 |
| 20260507001004 | 45 | 320 | 0.9 | 2.6 | 0.00 | 0.00 | 0.00 | 85 | 1014.8 |
| 20260507000004 | 45 | 320 | 0.9 | 2.6 | 0.00 | 0.00 | 0.00 | 85 | 1014.8 |